Terminal Aerodrome Forecast
Issued by NWS Caribou, ME

Home | Current Version | Previous Version | Text Only | Print | Product List | Glossary On
Versions: 1 2 3 4 5 6 7 8 9 10 11 12 13 14 15 16 17 18 19
000
FTUS41 KCAR 010700 AAB
TAFBGR
TAF AMD
KBGR 010748Z 0108/0206 23004KT 1SM -SHRA BR BKN002
     FM011200 23004KT 3SM BR BKN004
     FM011500 28004KT P6SM BKN015
     FM011800 28004KT P6SM BKN060
     FM020300 00000KT P6SM BKN005=

USA.gov is the U.S. government's official web portal to all federal, state and local government web resources and services.